sensor_id;sensor_type;location;lat;lon;timestamp;pressure;altitude;pressure_sealevel;temperature;humidity
42601;BME280;28229;48.856;9.088;2024-03-06T00:00:34;97986.47;;;4.83;100.00
42601;BME280;28229;48.856;9.088;2024-03-06T00:03:00;97974.25;;;4.83;100.00
42601;BME280;28229;48.856;9.088;2024-03-06T00:05:26;97983.06;;;4.82;100.00
42601;BME280;28229;48.856;9.088;2024-03-06T00:07:52;97987.09;;;4.85;100.00
42601;BME280;28229;48.856;9.088;2024-03-06T00:10:18;97986.00;;;4.79;100.00
42601;BME280;28229;48.856;9.088;2024-03-06T00:12:44;97988.28;;;4.82;100.00
42601;BME280;28229;48.856;9.088;2024-03-06T00:15:10;97981.88;;;4.85;100.00
42601;BME280;28229;48.856;9.088;2024-03-06T00:17:37;97989.44;;;4.80;100.00
42601;BME280;28229;48.856;9.088;2024-03-06T00:20:03;97984.69;;;4.83;100.00
42601;BME280;28229;48.856;9.088;2024-03-06T00:22:31;97981.88;;;4.85;100.00
42601;BME280;28229;48.856;9.088;2024-03-06T00:24:57;97983.06;;;4.82;100.00
42601;BME280;28229;48.856;9.088;2024-03-06T00:27:23;97990.41;;;4.79;100.00
42601;BME280;28229;48.856;9.088;2024-03-06T00:29:50;97991.50;;;4.84;100.00
42601;BME280;28229;48.856;9.088;2024-03-06T00:32:16;97980.72;;;4.87;100.00
42601;BME280;28229;48.856;9.088;2024-03-06T00:34:42;97988.28;;;4.82;100.00
42601;BME280;28229;48.856;9.088;2024-03-06T00:37:08;97985.84;;;4.81;100.00
42601;BME280;28229;48.856;9.088;2024-03-06T00:39:34;97994.47;;;4.81;100.00
42601;BME280;28229;48.856;9.088;2024-03-06T00:42:03;97996.38;;;4.87;100.00
42601;BME280;28229;48.856;9.088;2024-03-06T00:44:29;97986.38;;;4.91;100.00
42601;BME280;28229;48.856;9.088;2024-03-06T00:46:56;97990.34;;;4.87;100.00
42601;BME280;28229;48.856;9.088;2024-03-06T00:49:22;97989.53;;;4.86;100.00
42601;BME280;28229;48.856;9.088;2024-03-06T00:51:48;97985.94;;;4.87;100.00
42601;BME280;28229;48.856;9.088;2024-03-06T00:54:14;97981.34;;;4.89;100.00
42601;BME280;28229;48.856;9.088;2024-03-06T00:56:40;97979.38;;;4.91;100.00
42601;BME280;28229;48.856;9.088;2024-03-06T00:59:06;97976.59;;;4.93;100.00
42601;BME280;28229;48.856;9.088;2024-03-06T01:01:33;97980.28;;;4.99;100.00
42601;BME280;28229;48.856;9.088;2024-03-06T01:03:59;97974.53;;;5.03;100.00
42601;BME280;28229;48.856;9.088;2024-03-06T01:06:26;97978.56;;;5.06;100.00
42601;BME280;28229;48.856;9.088;2024-03-06T01:08:52;97980.38;;;5.05;100.00
42601;BME280;28229;48.856;9.088;2024-03-06T01:11:18;97990.78;;;5.05;100.00
42601;BME280;28229;48.856;9.088;2024-03-06T01:13:44;97996.19;;;5.04;100.00
42601;BME280;28229;48.856;9.088;2024-03-06T01:16:11;97999.69;;;5.11;100.00
42601;BME280;28229;48.856;9.088;2024-03-06T01:18:37;97995.09;;;5.13;100.00
42601;BME280;28229;48.856;9.088;2024-03-06T01:21:03;97989.88;;;5.13;100.00
42601;BME280;28229;48.856;9.088;2024-03-06T01:23:29;97993.13;;;5.15;100.00
42601;BME280;28229;48.856;9.088;2024-03-06T01:25:55;97999.41;;;5.06;100.00
42601;BME280;28229;48.856;9.088;2024-03-06T01:28:21;97994.47;;;5.11;100.00
42601;BME280;28229;48.856;9.088;2024-03-06T01:30:48;97999.16;;;5.15;100.00
42601;BME280;28229;48.856;9.088;2024-03-06T01:33:14;97997.06;;;5.11;100.00
42601;BME280;28229;48.856;9.088;2024-03-06T01:35:40;97992.88;;;5.10;100.00
42601;BME280;28229;48.856;9.088;2024-03-06T01:38:06;97996.09;;;5.12;100.00
42601;BME280;28229;48.856;9.088;2024-03-06T01:40:33;97994.81;;;5.08;100.00
42601;BME280;28229;48.856;9.088;2024-03-06T01:42:59;97992.50;;;5.13;100.00
42601;BME280;28229;48.856;9.088;2024-03-06T01:45:27;97986.28;;;5.14;100.00
42601;BME280;28229;48.856;9.088;2024-03-06T01:47:53;97990.88;;;5.12;100.00
42601;BME280;28229;48.856;9.088;2024-03-06T01:50:19;97989.59;;;5.08;100.00
42601;BME280;28229;48.856;9.088;2024-03-06T01:52:46;97986.03;;;5.09;100.00
42601;BME280;28229;48.856;9.088;2024-03-06T01:55:14;97990.25;;;5.10;100.00
42601;BME280;28229;48.856;9.088;2024-03-06T01:57:41;97995.84;;;5.07;100.00
42601;BME280;28229;48.856;9.088;2024-03-06T02:00:08;98001.41;;;5.04;100.00
42601;BME280;28229;48.856;9.088;2024-03-06T02:02:41;97998.16;;;5.02;100.00
42601;BME280;28229;48.856;9.088;2024-03-06T02:05:08;97997.44;;;5.08;100.00
42601;BME280;28229;48.856;9.088;2024-03-06T02:07:36;97997.81;;;5.05;100.00
42601;BME280;28229;48.856;9.088;2024-03-06T02:10:03;97997.63;;;5.06;100.00
42601;BME280;28229;48.856;9.088;2024-03-06T02:12:30;97998.97;;;5.02;100.00
42601;BME280;28229;48.856;9.088;2024-03-06T02:14:56;98004.63;;;5.06;100.00
42601;BME280;28229;48.856;9.088;2024-03-06T02:17:22;98005.47;;;5.06;100.00
42601;BME280;28229;48.856;9.088;2024-03-06T02:19:51;98010.69;;;5.06;100.00
42601;BME280;28229;48.856;9.088;2024-03-06T02:22:17;98011.56;;;5.13;100.00
42601;BME280;28229;48.856;9.088;2024-03-06T02:24:47;98004.56;;;5.14;100.00
42601;BME280;28229;48.856;9.088;2024-03-06T02:27:14;98005.00;;;5.03;100.00
42601;BME280;28229;48.856;9.088;2024-03-06T02:29:40;98005.38;;;5.00;100.00
42601;BME280;28229;48.856;9.088;2024-03-06T02:32:06;98002.13;;;4.98;100.00
42601;BME280;28229;48.856;9.088;2024-03-06T02:34:32;98013.81;;;5.02;100.00
42601;BME280;28229;48.856;9.088;2024-03-06T02:36:58;98016.13;;;4.96;100.00
42601;BME280;28229;48.856;9.088;2024-03-06T02:39:24;98008.03;;;4.91;100.00
42601;BME280;28229;48.856;9.088;2024-03-06T02:41:51;98014.16;;;4.99;100.00
42601;BME280;28229;48.856;9.088;2024-03-06T02:44:17;98006.97;;;5.01;100.00
42601;BME280;28229;48.856;9.088;2024-03-06T02:46:50;98012.56;;;4.98;100.00
42601;BME280;28229;48.856;9.088;2024-03-06T02:49:17;98011.03;;;5.03;100.00
42601;BME280;28229;48.856;9.088;2024-03-06T02:51:44;98010.13;;;4.96;100.00
42601;BME280;28229;48.856;9.088;2024-03-06T02:54:10;98010.03;;;4.89;100.00
42601;BME280;28229;48.856;9.088;2024-03-06T02:56:36;98007.41;;;4.89;100.00
42601;BME280;28229;48.856;9.088;2024-03-06T02:59:02;98004.00;;;4.89;100.00
42601;BME280;28229;48.856;9.088;2024-03-06T03:01:29;98009.69;;;4.92;100.00
42601;BME280;28229;48.856;9.088;2024-03-06T03:03:56;98016.13;;;4.96;100.00
42601;BME280;28229;48.856;9.088;2024-03-06T03:06:22;98006.91;;;4.94;100.00
42601;BME280;28229;48.856;9.088;2024-03-06T03:08:51;98015.34;;;4.96;100.00
42601;BME280;28229;48.856;9.088;2024-03-06T03:11:18;98016.50;;;4.93;100.00
42601;BME280;28229;48.856;9.088;2024-03-06T03:13:44;98009.56;;;4.86;100.00
42601;BME280;28229;48.856;9.088;2024-03-06T03:16:20;98015.75;;;4.85;100.00
42601;BME280;28229;48.856;9.088;2024-03-06T03:18:46;98014.97;;;4.84;100.00
42601;BME280;28229;48.856;9.088;2024-03-06T03:21:15;98008.78;;;4.85;100.00
42601;BME280;28229;48.856;9.088;2024-03-06T03:23:41;98017.91;;;4.81;100.00
42601;BME280;28229;48.856;9.088;2024-03-06T03:26:08;98011.00;;;4.73;100.00
42601;BME280;28229;48.856;9.088;2024-03-06T03:28:39;98006.59;;;4.74;100.00
42601;BME280;28229;48.856;9.088;2024-03-06T03:31:09;98020.72;;;4.80;100.00
42601;BME280;28229;48.856;9.088;2024-03-06T03:33:39;98012.69;;;4.81;100.00
42601;BME280;28229;48.856;9.088;2024-03-06T03:36:06;98020.91;;;4.78;100.00
42601;BME280;28229;48.856;9.088;2024-03-06T03:38:35;98017.28;;;4.79;100.00
42601;BME280;28229;48.856;9.088;2024-03-06T03:41:10;98023.34;;;4.80;100.00
42601;BME280;28229;48.856;9.088;2024-03-06T03:43:39;98026.13;;;4.78;100.00
42601;BME280;28229;48.856;9.088;2024-03-06T03:46:05;98017.47;;;4.77;100.00
42601;BME280;28229;48.856;9.088;2024-03-06T03:48:32;98027.09;;;4.77;100.00
42601;BME280;28229;48.856;9.088;2024-03-06T03:51:02;98030.69;;;4.76;100.00
42601;BME280;28229;48.856;9.088;2024-03-06T03:53:30;98026.75;;;4.80;100.00
42601;BME280;28229;48.856;9.088;2024-03-06T03:55:56;98027.38;;;4.82;100.00
42601;BME280;28229;48.856;9.088;2024-03-06T03:58:22;98033.22;;;4.84;100.00
42601;BME280;28229;48.856;9.088;2024-03-06T04:00:48;98040.13;;;4.77;100.00
42601;BME280;28229;48.856;9.088;2024-03-06T04:03:19;98044.97;;;4.80;100.00
42601;BME280;28229;48.856;9.088;2024-03-06T04:05:49;98036.00;;;4.83;100.00
42601;BME280;28229;48.856;9.088;2024-03-06T04:08:15;98041.66;;;4.86;100.00
42601;BME280;28229;48.856;9.088;2024-03-06T04:10:42;98046.06;;;4.86;100.00
42601;BME280;28229;48.856;9.088;2024-03-06T04:13:11;98042.84;;;4.84;100.00
42601;BME280;28229;48.856;9.088;2024-03-06T04:15:38;98042.72;;;4.77;100.00
42601;BME280;28229;48.856;9.088;2024-03-06T04:18:04;98038.75;;;4.81;100.00
42601;BME280;28229;48.856;9.088;2024-03-06T04:20:30;98039.78;;;4.80;100.00
42601;BME280;28229;48.856;9.088;2024-03-06T04:22:56;98048.84;;;4.84;100.00
42601;BME280;28229;48.856;9.088;2024-03-06T04:25:23;98052.97;;;4.79;100.00
42601;BME280;28229;48.856;9.088;2024-03-06T04:27:49;98056.94;;;4.89;100.00
42601;BME280;28229;48.856;9.088;2024-03-06T04:30:15;98050.47;;;4.85;100.00
42601;BME280;28229;48.856;9.088;2024-03-06T04:32:42;98044.09;;;4.88;100.00
42601;BME280;28229;48.856;9.088;2024-03-06T04:35:08;98052.38;;;4.91;100.00
42601;BME280;28229;48.856;9.088;2024-03-06T04:37:46;98050.94;;;4.89;100.00
42601;BME280;28229;48.856;9.088;2024-03-06T04:40:13;98057.66;;;4.83;100.00
42601;BME280;28229;48.856;9.088;2024-03-06T04:42:41;98065.75;;;4.88;100.00
42601;BME280;28229;48.856;9.088;2024-03-06T04:45:11;98063.50;;;4.85;100.00
42601;BME280;28229;48.856;9.088;2024-03-06T04:47:38;98070.50;;;4.85;100.00
42601;BME280;28229;48.856;9.088;2024-03-06T04:50:08;98070.97;;;4.88;100.00
42601;BME280;28229;48.856;9.088;2024-03-06T04:52:37;98067.53;;;4.88;100.00
42601;BME280;28229;48.856;9.088;2024-03-06T04:55:04;98072.13;;;4.86;100.00
42601;BME280;28229;48.856;9.088;2024-03-06T04:57:30;98069.00;;;4.90;100.00
42601;BME280;28229;48.856;9.088;2024-03-06T04:59:56;98077.81;;;4.89;100.00
42601;BME280;28229;48.856;9.088;2024-03-06T05:02:24;98076.53;;;4.85;100.00
42601;BME280;28229;48.856;9.088;2024-03-06T05:04:53;98078.88;;;4.80;100.00
42601;BME280;28229;48.856;9.088;2024-03-06T05:07:19;98081.75;;;4.85;100.00
42601;BME280;28229;48.856;9.088;2024-03-06T05:09:45;98088.22;;;4.89;100.00
42601;BME280;28229;48.856;9.088;2024-03-06T05:12:11;98085.00;;;4.87;100.00
42601;BME280;28229;48.856;9.088;2024-03-06T05:14:37;98091.81;;;4.88;100.00
42601;BME280;28229;48.856;9.088;2024-03-06T05:17:04;98096.69;;;4.91;100.00
42601;BME280;28229;48.856;9.088;2024-03-06T05:19:30;98097.03;;;4.88;100.00
42601;BME280;28229;48.856;9.088;2024-03-06T05:21:58;98098.66;;;4.89;100.00
42601;BME280;28229;48.856;9.088;2024-03-06T05:24:24;98106.13;;;4.92;100.00
42601;BME280;28229;48.856;9.088;2024-03-06T05:26:51;98100.75;;;4.94;100.00
42601;BME280;28229;48.856;9.088;2024-03-06T05:29:17;98101.91;;;4.91;100.00
42601;BME280;28229;48.856;9.088;2024-03-06T05:31:43;98104.78;;;4.96;100.00
42601;BME280;28229;48.856;9.088;2024-03-06T05:34:09;98104.16;;;4.94;100.00
42601;BME280;28229;48.856;9.088;2024-03-06T05:36:35;98103.41;;;4.86;100.00
42601;BME280;28229;48.856;9.088;2024-03-06T05:39:02;98102.63;;;4.85;100.00
42601;BME280;28229;48.856;9.088;2024-03-06T05:41:33;98107.00;;;4.85;100.00
42601;BME280;28229;48.856;9.088;2024-03-06T05:43:59;98111.06;;;4.87;100.00
42601;BME280;28229;48.856;9.088;2024-03-06T05:46:25;98113.03;;;4.85;100.00
42601;BME280;28229;48.856;9.088;2024-03-06T05:48:52;98113.84;;;4.86;100.00
42601;BME280;28229;48.856;9.088;2024-03-06T05:51:20;98116.78;;;4.83;100.00
42601;BME280;28229;48.856;9.088;2024-03-06T05:53:47;98115.47;;;4.87;100.00
42601;BME280;28229;48.856;9.088;2024-03-06T05:56:13;98114.81;;;4.85;100.00
42601;BME280;28229;48.856;9.088;2024-03-06T05:58:39;98120.56;;;4.80;100.00
42601;BME280;28229;48.856;9.088;2024-03-06T06:01:05;98124.16;;;4.79;100.00
42601;BME280;28229;48.856;9.088;2024-03-06T06:03:31;98125.00;;;4.80;100.00
42601;BME280;28229;48.856;9.088;2024-03-06T06:05:57;98131.63;;;4.82;100.00
42601;BME280;28229;48.856;9.088;2024-03-06T06:08:24;98130.19;;;4.80;100.00
42601;BME280;28229;48.856;9.088;2024-03-06T06:10:50;98133.91;;;4.85;100.00
42601;BME280;28229;48.856;9.088;2024-03-06T06:13:21;98136.50;;;4.85;100.00
42601;BME280;28229;48.856;9.088;2024-03-06T06:15:47;98145.75;;;4.88;100.00
42601;BME280;28229;48.856;9.088;2024-03-06T06:18:13;98143.16;;;4.88;100.00
42601;BME280;28229;48.856;9.088;2024-03-06T06:20:41;98143.94;;;4.88;100.00
42601;BME280;28229;48.856;9.088;2024-03-06T06:23:08;98159.97;;;4.85;100.00
42601;BME280;28229;48.856;9.088;2024-03-06T06:25:34;98156.97;;;4.88;100.00
42601;BME280;28229;48.856;9.088;2024-03-06T06:28:01;98167.41;;;4.88;100.00
42601;BME280;28229;48.856;9.088;2024-03-06T06:30:27;98170.38;;;4.85;100.00
42601;BME280;28229;48.856;9.088;2024-03-06T06:32:53;98168.75;;;4.84;100.00
42601;BME280;28229;48.856;9.088;2024-03-06T06:35:19;98177.03;;;4.88;100.00
42601;BME280;28229;48.856;9.088;2024-03-06T06:37:45;98176.19;;;4.95;100.00
42601;BME280;28229;48.856;9.088;2024-03-06T06:40:12;98179.25;;;4.99;100.00
42601;BME280;28229;48.856;9.088;2024-03-06T06:42:47;98183.47;;;5.00;100.00
42601;BME280;28229;48.856;9.088;2024-03-06T06:45:16;98183.59;;;5.07;100.00
42601;BME280;28229;48.856;9.088;2024-03-06T06:47:43;98184.56;;;5.06;100.00
42601;BME280;28229;48.856;9.088;2024-03-06T06:50:10;98184.19;;;5.47;100.00
42601;BME280;28229;48.856;9.088;2024-03-06T06:52:43;98181.44;;;5.78;100.00
42601;BME280;28229;48.856;9.088;2024-03-06T06:55:10;98180.13;;;5.97;100.00
42601;BME280;28229;48.856;9.088;2024-03-06T06:57:37;98183.84;;;6.09;100.00
42601;BME280;28229;48.856;9.088;2024-03-06T07:00:04;98186.38;;;6.18;100.00
42601;BME280;28229;48.856;9.088;2024-03-06T07:02:42;98186.13;;;6.27;100.00
42601;BME280;28229;48.856;9.088;2024-03-06T07:05:09;98190.94;;;6.31;100.00
42601;BME280;28229;48.856;9.088;2024-03-06T07:07:36;98184.19;;;6.36;100.00
42601;BME280;28229;48.856;9.088;2024-03-06T07:10:07;98185.28;;;6.42;100.00
42601;BME280;28229;48.856;9.088;2024-03-06T07:12:35;98194.63;;;6.36;100.00
42601;BME280;28229;48.856;9.088;2024-03-06T07:15:03;98189.41;;;6.36;100.00
42601;BME280;28229;48.856;9.088;2024-03-06T07:17:29;98195.50;;;6.43;100.00
42601;BME280;28229;48.856;9.088;2024-03-06T07:19:55;98200.38;;;6.46;100.00
42601;BME280;28229;48.856;9.088;2024-03-06T07:22:22;98202.00;;;6.47;100.00
42601;BME280;28229;48.856;9.088;2024-03-06T07:24:48;98201.94;;;6.41;100.00
42601;BME280;28229;48.856;9.088;2024-03-06T07:27:14;98198.53;;;6.25;100.00
42601;BME280;28229;48.856;9.088;2024-03-06T07:29:41;98204.13;;;6.07;100.00
42601;BME280;28229;48.856;9.088;2024-03-06T07:32:09;98209.69;;;5.89;100.00
42601;BME280;28229;48.856;9.088;2024-03-06T07:34:35;98211.97;;;5.78;100.00
42601;BME280;28229;48.856;9.088;2024-03-06T07:37:01;98207.53;;;5.63;100.00
42601;BME280;28229;48.856;9.088;2024-03-06T07:39:27;98218.84;;;5.56;100.00
42601;BME280;28229;48.856;9.088;2024-03-06T07:41:54;98215.50;;;5.47;100.00
42601;BME280;28229;48.856;9.088;2024-03-06T07:44:20;98214.50;;;5.33;100.00
42601;BME280;28229;48.856;9.088;2024-03-06T07:46:46;98221.78;;;5.38;100.00
42601;BME280;28229;48.856;9.088;2024-03-06T07:49:12;98223.13;;;5.33;100.00
42601;BME280;28229;48.856;9.088;2024-03-06T07:51:39;98222.50;;;5.31;100.00
42601;BME280;28229;48.856;9.088;2024-03-06T07:54:06;98225.75;;;5.33;100.00
42601;BME280;28229;48.856;9.088;2024-03-06T07:56:33;98225.88;;;5.40;100.00
42601;BME280;28229;48.856;9.088;2024-03-06T07:59:00;98221.97;;;5.36;100.00
42601;BME280;28229;48.856;9.088;2024-03-06T08:01:26;98236.53;;;5.30;100.00
42601;BME280;28229;48.856;9.088;2024-03-06T08:03:55;98226.56;;;5.34;100.00
42601;BME280;28229;48.856;9.088;2024-03-06T08:06:21;98237.78;;;5.34;100.00
42601;BME280;28229;48.856;9.088;2024-03-06T08:08:47;98238.06;;;5.40;100.00
42601;BME280;28229;48.856;9.088;2024-03-06T08:11:13;98245.22;;;5.46;100.00
42601;BME280;28229;48.856;9.088;2024-03-06T08:13:40;98246.81;;;5.47;100.00
42601;BME280;28229;48.856;9.088;2024-03-06T08:16:08;98249.50;;;5.39;100.00
42601;BME280;28229;48.856;9.088;2024-03-06T08:18:34;98245.56;;;5.43;100.00
42601;BME280;28229;48.856;9.088;2024-03-06T08:21:01;98246.47;;;5.50;100.00
42601;BME280;28229;48.856;9.088;2024-03-06T08:23:29;98249.13;;;5.42;100.00
42601;BME280;28229;48.856;9.088;2024-03-06T08:25:56;98247.13;;;5.29;100.00
42601;BME280;28229;48.856;9.088;2024-03-06T08:28:23;98253.97;;;5.30;100.00
42601;BME280;28229;48.856;9.088;2024-03-06T08:30:49;98246.63;;;5.33;100.00
42601;BME280;28229;48.856;9.088;2024-03-06T08:33:15;98247.97;;;5.29;100.00
42601;BME280;28229;48.856;9.088;2024-03-06T08:35:42;98251.19;;;5.31;100.00
42601;BME280;28229;48.856;9.088;2024-03-06T08:38:08;98250.13;;;5.26;100.00
42601;BME280;28229;48.856;9.088;2024-03-06T08:40:34;98254.50;;;5.25;100.00
42601;BME280;28229;48.856;9.088;2024-03-06T08:43:00;98260.53;;;5.26;100.00
42601;BME280;28229;48.856;9.088;2024-03-06T08:45:27;98257.41;;;5.30;100.00
42601;BME280;28229;48.856;9.088;2024-03-06T08:47:53;98257.50;;;5.37;100.00
42601;BME280;28229;48.856;9.088;2024-03-06T08:50:20;98259.38;;;5.28;100.00
42601;BME280;28229;48.856;9.088;2024-03-06T08:52:47;98266.09;;;5.23;100.00
42601;BME280;28229;48.856;9.088;2024-03-06T08:55:13;98257.66;;;5.21;100.00
42601;BME280;28229;48.856;9.088;2024-03-06T08:57:39;98264.31;;;5.23;100.00
42601;BME280;28229;48.856;9.088;2024-03-06T09:00:07;98264.31;;;5.23;100.00
42601;BME280;28229;48.856;9.088;2024-03-06T09:02:37;98264.47;;;5.22;100.00
42601;BME280;28229;48.856;9.088;2024-03-06T09:05:07;98270.50;;;5.22;100.00
42601;BME280;28229;48.856;9.088;2024-03-06T09:07:34;98271.19;;;5.16;100.00
42601;BME280;28229;48.856;9.088;2024-03-06T09:10:07;98277.69;;;5.20;100.00
42601;BME280;28229;48.856;9.088;2024-03-06T09:12:33;98272.94;;;5.24;100.00
42601;BME280;28229;48.856;9.088;2024-03-06T09:15:03;98278.97;;;5.24;100.00
42601;BME280;28229;48.856;9.088;2024-03-06T09:17:30;98275.03;;;5.28;100.00
42601;BME280;28229;48.856;9.088;2024-03-06T09:19:56;98272.41;;;5.28;100.00
42601;BME280;28229;48.856;9.088;2024-03-06T09:22:22;98271.78;;;5.26;100.00
42601;BME280;28229;48.856;9.088;2024-03-06T09:24:49;98273.03;;;5.30;100.00
42601;BME280;28229;48.856;9.088;2024-03-06T09:27:15;98275.03;;;5.28;100.00
42601;BME280;28229;48.856;9.088;2024-03-06T09:29:43;98278.56;;;5.36;100.00
42601;BME280;28229;48.856;9.088;2024-03-06T09:32:09;98281.97;;;5.36;100.00
42601;BME280;28229;48.856;9.088;2024-03-06T09:34:35;98285.75;;;5.33;100.00
42601;BME280;28229;48.856;9.088;2024-03-06T09:37:02;98284.06;;;5.41;100.00
42601;BME280;28229;48.856;9.088;2024-03-06T09:39:29;98294.50;;;5.41;100.00
42601;BME280;28229;48.856;9.088;2024-03-06T09:41:55;98297.41;;;5.46;100.00
42601;BME280;28229;48.856;9.088;2024-03-06T09:44:23;98294.50;;;5.41;100.00
42601;BME280;28229;48.856;9.088;2024-03-06T09:46:49;98289.63;;;5.38;100.00
42601;BME280;28229;48.856;9.088;2024-03-06T09:49:19;98293.50;;;5.42;100.00
42601;BME280;28229;48.856;9.088;2024-03-06T09:51:48;98290.63;;;5.37;100.00
42601;BME280;28229;48.856;9.088;2024-03-06T09:54:19;98289.28;;;5.41;100.00
42601;BME280;28229;48.856;9.088;2024-03-06T09:56:49;98297.16;;;5.32;100.00
42601;BME280;28229;48.856;9.088;2024-03-06T09:59:15;98302.31;;;5.41;100.00
42601;BME280;28229;48.856;9.088;2024-03-06T10:01:52;98305.91;;;5.40;100.00
42601;BME280;28229;48.856;9.088;2024-03-06T10:04:26;98296.41;;;5.47;100.00
42601;BME280;28229;48.856;9.088;2024-03-06T10:06:53;98295.88;;;5.51;100.00
42601;BME280;28229;48.856;9.088;2024-03-06T10:09:23;98307.75;;;5.54;100.00
42601;BME280;28229;48.856;9.088;2024-03-06T10:11:50;98299.59;;;5.57;100.00
42601;BME280;28229;48.856;9.088;2024-03-06T10:14:18;98299.25;;;5.60;100.00
42601;BME280;28229;48.856;9.088;2024-03-06T10:16:58;98296.00;;;5.58;100.00
42601;BME280;28229;48.856;9.088;2024-03-06T10:19:26;98293.72;;;5.55;100.00
42601;BME280;28229;48.856;9.088;2024-03-06T10:21:54;98300.75;;;5.55;100.00
42601;BME280;28229;48.856;9.088;2024-03-06T10:24:21;98302.53;;;5.54;100.00
42601;BME280;28229;48.856;9.088;2024-03-06T10:26:55;98293.09;;;5.53;100.00
42601;BME280;28229;48.856;9.088;2024-03-06T10:29:26;98292.72;;;5.56;100.00
42601;BME280;28229;48.856;9.088;2024-03-06T10:31:54;98303.28;;;5.63;100.00
42601;BME280;28229;48.856;9.088;2024-03-06T10:34:24;98296.75;;;5.67;100.00
42601;BME280;28229;48.856;9.088;2024-03-06T10:37:02;98306.34;;;5.66;100.00
42601;BME280;28229;48.856;9.088;2024-03-06T10:39:35;98305.56;;;5.66;100.00
42601;BME280;28229;48.856;9.088;2024-03-06T10:42:06;98295.69;;;5.76;100.00
42601;BME280;28229;48.856;9.088;2024-03-06T10:44:34;98300.50;;;5.64;100.00
42601;BME280;28229;48.856;9.088;2024-03-06T10:47:05;98308.34;;;5.64;100.00
42601;BME280;28229;48.856;9.088;2024-03-06T10:49:31;98310.59;;;5.67;100.00
42601;BME280;28229;48.856;9.088;2024-03-06T10:52:02;98303.41;;;5.69;100.00
42601;BME280;28229;48.856;9.088;2024-03-06T10:54:34;98308.63;;;5.69;100.00
42601;BME280;28229;48.856;9.088;2024-03-06T10:57:05;98303.91;;;5.65;100.00
42601;BME280;28229;48.856;9.088;2024-03-06T10:59:32;98307.06;;;5.60;100.00
42601;BME280;28229;48.856;9.088;2024-03-06T11:02:00;98306.78;;;5.55;100.00
42601;BME280;28229;48.856;9.088;2024-03-06T11:04:28;98308.75;;;5.53;100.00
42601;BME280;28229;48.856;9.088;2024-03-06T11:06:57;98313.25;;;5.59;100.00
42601;BME280;28229;48.856;9.088;2024-03-06T11:09:26;98313.91;;;5.61;100.00
42601;BME280;28229;48.856;9.088;2024-03-06T11:11:54;98316.59;;;5.53;100.00
42601;BME280;28229;48.856;9.088;2024-03-06T11:14:21;98317.34;;;5.62;100.00
42601;BME280;28229;48.856;9.088;2024-03-06T11:17:02;98311.66;;;5.58;100.00
42601;BME280;28229;48.856;9.088;2024-03-06T11:19:29;98308.13;;;5.51;100.00
42601;BME280;28229;48.856;9.088;2024-03-06T11:21:56;98307.59;;;5.56;100.00
42601;BME280;28229;48.856;9.088;2024-03-06T11:24:32;98311.94;;;5.63;100.00
42601;BME280;28229;48.856;9.088;2024-03-06T11:27:04;98310.44;;;5.69;100.00
42601;BME280;28229;48.856;9.088;2024-03-06T11:33:00;98309.88;;;5.73;100.00
42601;BME280;28229;48.856;9.088;2024-03-06T11:35:28;98315.47;;;5.70;100.00
42601;BME280;28229;48.856;9.088;2024-03-06T11:37:54;98319.88;;;5.70;100.00
42601;BME280;28229;48.856;9.088;2024-03-06T11:40:23;98316.94;;;5.88;100.00
42601;BME280;28229;48.856;9.088;2024-03-06T11:42:50;98325.03;;;5.93;100.00
42601;BME280;28229;48.856;9.088;2024-03-06T11:45:16;98323.66;;;6.05;100.00
42601;BME280;28229;48.856;9.088;2024-03-06T11:47:56;98315.47;;;6.08;100.00
42601;BME280;28229;48.856;9.088;2024-03-06T11:50:25;98311.22;;;6.07;100.00
42601;BME280;28229;48.856;9.088;2024-03-06T11:52:52;98322.75;;;5.98;100.00
42601;BME280;28229;48.856;9.088;2024-03-06T11:55:18;98327.16;;;5.98;100.00
42601;BME280;28229;48.856;9.088;2024-03-06T11:57:46;98320.19;;;5.90;100.00
42601;BME280;28229;48.856;9.088;2024-03-06T12:00:13;98322.16;;;5.88;100.00
42601;BME280;28229;48.856;9.088;2024-03-06T12:02:42;98320.19;;;5.90;100.00
42601;BME280;28229;48.856;9.088;2024-03-06T12:05:09;98314.28;;;5.96;100.00
42601;BME280;28229;48.856;9.088;2024-03-06T12:07:49;98316.53;;;5.99;100.00
42601;BME280;28229;48.856;9.088;2024-03-06T12:10:16;98317.19;;;6.01;100.00
42601;BME280;28229;48.856;9.088;2024-03-06T12:12:43;98311.81;;;5.95;100.00
42601;BME280;28229;48.856;9.088;2024-03-06T12:15:11;98311.19;;;5.93;100.00
42601;BME280;28229;48.856;9.088;2024-03-06T12:17:47;98315.44;;;5.94;100.00
42601;BME280;28229;48.856;9.088;2024-03-06T12:20:14;98312.63;;;5.95;100.00
42601;BME280;28229;48.856;9.088;2024-03-06T12:22:51;98312.81;;;5.94;100.00
42601;BME280;28229;48.856;9.088;2024-03-06T12:25:26;98316.22;;;5.94;100.00
42601;BME280;28229;48.856;9.088;2024-03-06T12:27:54;98315.59;;;5.92;100.00
42601;BME280;28229;48.856;9.088;2024-03-06T12:30:21;98318.22;;;5.92;100.00
42601;BME280;28229;48.856;9.088;2024-03-06T12:32:59;98323.63;;;5.90;100.00
42601;BME280;28229;48.856;9.088;2024-03-06T12:35:26;98312.16;;;5.91;100.00
42601;BME280;28229;48.856;9.088;2024-03-06T12:37:53;98318.56;;;5.89;100.00
42601;BME280;28229;48.856;9.088;2024-03-06T12:40:19;98324.75;;;5.88;100.00
42601;BME280;28229;48.856;9.088;2024-03-06T12:42:46;98309.38;;;5.93;100.00
42601;BME280;28229;48.856;9.088;2024-03-06T12:45:12;98327.03;;;5.91;100.00
42601;BME280;28229;48.856;9.088;2024-03-06T12:47:43;98329.94;;;5.96;100.00
42601;BME280;28229;48.856;9.088;2024-03-06T12:50:11;98317.00;;;6.03;100.00
42601;BME280;28229;48.856;9.088;2024-03-06T12:52:38;98325.91;;;6.08;100.00
42601;BME280;28229;48.856;9.088;2024-03-06T12:55:04;98326.91;;;6.07;100.00
42601;BME280;28229;48.856;9.088;2024-03-06T12:57:33;98318.44;;;6.05;100.00
42601;BME280;28229;48.856;9.088;2024-03-06T13:00:00;98311.00;;;5.94;100.00
42601;BME280;28229;48.856;9.088;2024-03-06T13:02:27;98310.69;;;5.97;100.00
42601;BME280;28229;48.856;9.088;2024-03-06T13:04:53;98316.22;;;5.94;100.00